Aérodrome :
LOGIN :

S'inscrire | Disclaimer

   EN    FR    IT 

 










Légende :    VFR   VFR Marginal   IFR   IFR Intensif   IFR Très Intensif
Visi : 
Plafond : 
>= 8 km
>= 3000ft
5 à 8 km
1000 à 3000 ft
1500m à 5 km
500 à 1000 ft
800 à 1500m
200 à 500 ft
< 800m
< 200 ft
Symboles :   Orages  Brouillard  Fortes neiges  Fortes précipitations  Vent > 20 kt
SIGMETs :   Divers  Orages  Givrage  Turbulence  Onde Orograph.  Cendres Volcan.







- Altitude de l'aérodrome : 32 ft
- Code IATA : LKZ


EGUL - RAF Lakenheath

DERNIER METAR :
  • 261156Z COR 34008KT 9999 BKN043 11/02 A3050 RMK AO2 SLP332 T01070015 10110 20006 57007 $ COR 1205

METARs EXPIRÉS :
  • 261056Z 31008KT 9999 CLR 11/03 A3050 RMK AO2A SLP332 T01050033 $
  • 261049Z 33005KT 9999 SCT050 10/03 A3050 RMK SLP332 $
  • 260956Z AUTO 32006KT 9999 CLR 08/03 A3051 RMK AO2 SLP335 T00840032 $

TAF TAF EGUL
Valide du 26 à 12h jusqu'au 27 à 18h UTC


261202Z 2612/2718 32009KT 9999 BKN030 QNH3045INS
BECMG 2619/2620 VRB06KT 9999 BKN025 QNH3048INS
BECMG 2707/2708 29009KT 9999 BKN020 QNH3053INS TX12/2614Z TNM01/2705Z
Pas de NOTAMs connus pour ce terrain.



MET'MAP, la Météo Aéronautique d'un coup d'oeil ! - Copyright ORBIFLY Décembre 2007 - Disclaimer

ORBIFLY MET'MAP TEAM :

Programmation & Développement : Alexandra Zaïnal
Conception & Développement : Baudouin d'Aumeries
Co-Programmation & Développement : Marc-Olivier Méhu
Soutien technique & logistique : Manuel Goepfert

Contact : metmap@orbifly.com




SOURCES & CREDITS :

   NOAA